createdAt,value
2019-05-12T00:00:44.862Z,4.53
2019-05-12T00:03:14.776Z,3.30
2019-05-12T00:05:44.902Z,7.07
2019-05-12T00:08:14.792Z,4.07
2019-05-12T00:10:44.902Z,3.97
2019-05-12T00:13:14.834Z,3.77
2019-05-12T00:15:44.776Z,3.87
2019-05-12T00:18:14.612Z,4.07
2019-05-12T00:20:44.580Z,5.50
2019-05-12T00:23:26.640Z,5.77
2019-05-12T00:25:47.983Z,3.57
2019-05-12T00:28:18.061Z,3.60
2019-05-12T00:30:50.511Z,3.27
2019-05-12T00:33:20.415Z,3.40
2019-05-12T00:35:50.679Z,3.33
2019-05-12T00:38:20.582Z,2.93
2019-05-12T00:40:50.737Z,3.10
2019-05-12T00:43:20.553Z,2.87
2019-05-12T00:45:49.809Z,2.87
2019-05-12T00:48:18.991Z,2.67
2019-05-12T00:50:48.817Z,2.90
2019-05-12T00:53:19.088Z,2.87
2019-05-12T00:55:49.108Z,3.40
2019-05-12T00:58:19.550Z,2.90
2019-05-12T01:00:49.669Z,2.87
2019-05-12T01:03:19.178Z,2.97
2019-05-12T01:05:48.751Z,3.00
2019-05-12T01:08:18.876Z,2.40
2019-05-12T01:10:48.857Z,2.60
2019-05-12T01:13:18.898Z,2.80
2019-05-12T01:15:48.825Z,2.60
2019-05-12T01:18:18.684Z,2.50
2019-05-12T01:20:48.604Z,6.33
2019-05-12T01:23:20.005Z,2.60
2019-05-12T01:25:50.829Z,2.70
2019-05-12T01:28:20.249Z,2.40
2019-05-12T01:30:50.006Z,2.07
2019-05-12T01:33:19.928Z,4.93
2019-05-12T01:35:49.336Z,2.27
2019-05-12T01:38:19.167Z,2.43
2019-05-12T01:40:49.119Z,3.10
2019-05-12T01:43:21.023Z,2.47
2019-05-12T01:45:49.302Z,2.53
2019-05-12T01:48:18.574Z,3.07
2019-05-12T01:50:48.369Z,3.10
2019-05-12T01:53:18.311Z,2.67
2019-05-12T01:55:48.512Z,2.60
2019-05-12T01:58:19.316Z,2.63
2019-05-12T02:00:49.639Z,2.70
2019-05-12T02:03:18.966Z,2.60
2019-05-12T02:05:51.833Z,2.73
2019-05-12T02:08:30.504Z,2.40
2019-05-12T02:11:18.449Z,2.63
2019-05-12T02:13:48.765Z,2.60
2019-05-12T02:16:18.801Z,2.50
2019-05-12T02:18:49.132Z,2.80
2019-05-12T02:21:19.008Z,2.73
2019-05-12T02:23:48.979Z,2.93
2019-05-12T02:26:19.076Z,3.17
2019-05-12T02:28:49.731Z,3.37
2019-05-12T02:31:20.692Z,3.10
2019-05-12T02:33:50.766Z,3.10
2019-05-12T02:36:20.082Z,2.97
2019-05-12T02:38:49.936Z,2.70
2019-05-12T02:41:19.868Z,3.70
2019-05-12T02:43:49.203Z,3.00
2019-05-12T02:46:19.073Z,2.63
2019-05-12T02:48:49.026Z,3.97
2019-05-12T02:51:18.481Z,2.53
2019-05-12T02:53:48.997Z,3.30
2019-05-12T02:56:20.493Z,4.43
2019-05-12T02:58:54.199Z,3.07
2019-05-12T03:01:24.371Z,3.00
2019-05-12T03:03:58.413Z,3.07
2019-05-12T03:06:29.646Z,2.40
2019-05-12T03:09:04.529Z,3.00
2019-05-12T03:11:35.298Z,2.60
2019-05-12T03:14:04.037Z,3.40
2019-05-12T03:16:35.020Z,2.57
2019-05-12T03:19:05.588Z,2.23
2019-05-12T03:21:35.922Z,2.20
2019-05-12T03:24:06.932Z,2.17
2019-05-12T03:26:37.086Z,2.50
2019-05-12T03:29:07.252Z,2.27
2019-05-12T03:31:40.808Z,2.43
2019-05-12T03:34:10.841Z,2.40
2019-05-12T03:36:42.889Z,2.17
2019-05-12T03:39:11.167Z,2.10
2019-05-12T03:41:44.306Z,2.00
2019-05-12T03:44:15.088Z,2.57
2019-05-12T03:46:45.677Z,2.07
2019-05-12T03:49:15.968Z,3.80
2019-05-12T03:51:45.969Z,1.60
2019-05-12T03:54:16.009Z,1.47
2019-05-12T03:56:45.918Z,1.83
2019-05-12T03:59:15.864Z,2.27
2019-05-12T04:01:45.790Z,2.03
2019-05-12T04:04:15.525Z,1.60
2019-05-12T04:06:45.659Z,1.33
2019-05-12T04:09:16.067Z,2.10
2019-05-12T04:11:45.982Z,2.00
2019-05-12T04:14:15.914Z,1.40
2019-05-12T04:16:45.820Z,1.97
2019-05-12T04:19:15.736Z,1.43
2019-05-12T04:21:45.066Z,1.63
2019-05-12T04:24:14.907Z,1.83
2019-05-12T04:26:45.190Z,1.20
2019-05-12T04:29:15.506Z,1.50
2019-05-12T04:31:45.607Z,1.43
2019-05-12T04:34:18.993Z,1.77
2019-05-12T04:36:47.037Z,1.83
2019-05-12T04:39:16.895Z,1.90
2019-05-12T04:41:46.803Z,3.13
2019-05-12T04:44:17.129Z,1.87
2019-05-12T04:46:46.477Z,1.67
2019-05-12T04:49:16.114Z,3.07
2019-05-12T04:51:45.983Z,3.63
2019-05-12T04:54:15.572Z,1.90
2019-05-12T04:56:45.569Z,2.20
2019-05-12T04:59:16.008Z,1.63
2019-05-12T05:01:46.255Z,1.80
2019-05-12T05:04:15.842Z,1.90
2019-05-12T05:06:46.126Z,1.90
2019-05-12T05:09:16.402Z,1.57
2019-05-12T05:11:45.698Z,1.30
2019-05-12T05:14:14.949Z,1.87
2019-05-12T05:16:45.385Z,2.67
2019-05-12T05:19:14.869Z,1.90
2019-05-12T05:21:44.914Z,1.43
2019-05-12T05:24:14.866Z,2.50
2019-05-12T05:26:44.804Z,1.80
2019-05-12T05:29:14.771Z,1.80
2019-05-12T05:31:44.682Z,1.53
2019-05-12T05:34:14.944Z,1.83
2019-05-12T05:36:44.888Z,2.47
2019-05-12T05:39:15.168Z,2.00
2019-05-12T05:41:46.462Z,2.40
2019-05-12T05:44:16.306Z,1.50
2019-05-12T05:46:50.048Z,1.43
2019-05-12T05:49:18.725Z,1.60
2019-05-12T05:51:54.221Z,1.37
2019-05-12T05:54:24.760Z,2.40
2019-05-12T05:56:58.223Z,2.67
2019-05-12T05:59:21.877Z,1.93
2019-05-12T06:01:52.466Z,1.77
2019-05-12T06:04:23.830Z,1.50
2019-05-12T06:06:55.893Z,1.57
2019-05-12T06:09:24.065Z,2.20
2019-05-12T06:11:54.227Z,3.23
2019-05-12T06:14:23.994Z,1.20
2019-05-12T06:16:53.887Z,2.07
2019-05-12T06:19:26.157Z,17.13
2019-05-12T06:21:55.337Z,2.53
2019-05-12T06:24:25.270Z,1.73
2019-05-12T06:27:00.466Z,2.17
2019-05-12T06:29:26.193Z,1.57
2019-05-12T06:32:00.057Z,1.43
2019-05-12T06:34:27.003Z,1.60
2019-05-12T06:36:57.267Z,1.37
2019-05-12T06:39:27.073Z,2.30
2019-05-12T06:42:01.858Z,1.60
2019-05-12T06:44:27.104Z,2.47
2019-05-12T06:47:03.494Z,2.03
2019-05-12T06:49:27.143Z,2.43
2019-05-12T06:52:01.461Z,2.03
2019-05-12T06:54:27.780Z,1.43
2019-05-12T06:57:16.584Z,1.40
2019-05-12T06:59:29.266Z,1.50
2019-05-12T07:02:00.607Z,1.40
2019-05-12T07:04:30.084Z,1.47
2019-05-12T07:07:00.830Z,2.37
2019-05-12T07:09:32.522Z,2.30
2019-05-12T07:12:03.870Z,1.60
2019-05-12T07:14:34.503Z,1.97
2019-05-12T07:17:11.026Z,1.57
2019-05-12T07:19:40.890Z,1.80
2019-05-12T07:22:19.964Z,1.83
2019-05-12T07:24:50.036Z,1.70
2019-05-12T07:27:14.095Z,1.80
2019-05-12T07:29:43.678Z,2.30
2019-05-12T07:32:16.267Z,1.83
2019-05-12T07:34:44.699Z,3.00
2019-05-12T07:37:15.256Z,3.97
2019-05-12T07:39:49.415Z,3.87
2019-05-12T07:42:17.214Z,2.70
2019-05-12T07:44:46.601Z,6.30
2019-05-12T07:47:19.134Z,2.50
2019-05-12T07:49:47.941Z,3.67
2019-05-12T07:52:17.189Z,5.10
2019-05-12T07:54:46.659Z,3.53
2019-05-12T07:57:17.521Z,2.50
2019-05-12T07:59:47.300Z,4.03
2019-05-12T08:02:17.244Z,4.93
2019-05-12T08:04:46.570Z,4.27
2019-05-12T08:07:19.748Z,2.60
2019-05-12T08:09:47.972Z,3.07
2019-05-12T08:12:20.954Z,2.50
2019-05-12T08:14:48.817Z,2.43
2019-05-12T08:17:19.563Z,2.80
2019-05-12T08:19:49.623Z,3.20
2019-05-12T08:22:24.034Z,3.23
2019-05-12T08:24:49.826Z,2.73
2019-05-12T08:27:19.056Z,2.67
2019-05-12T08:29:54.445Z,3.63
2019-05-12T08:32:20.555Z,4.57
2019-05-12T08:34:50.640Z,3.37
2019-05-12T08:37:20.591Z,3.50
2019-05-12T08:39:53.265Z,3.17
2019-05-12T08:42:23.644Z,3.37
2019-05-12T08:44:54.257Z,4.07
2019-05-12T08:47:28.966Z,2.80
2019-05-12T08:49:58.480Z,2.57
2019-05-12T08:52:30.448Z,3.40
2019-05-12T08:54:58.312Z,3.50
2019-05-12T08:57:32.548Z,3.33
2019-05-12T09:00:02.904Z,3.27
2019-05-12T09:02:31.002Z,4.83
2019-05-12T09:05:00.956Z,3.30
2019-05-12T09:07:35.883Z,3.70
2019-05-12T09:10:04.175Z,5.03
2019-05-12T09:12:34.276Z,2.90
2019-05-12T09:15:04.780Z,4.17
2019-05-12T09:17:37.405Z,4.23
2019-05-12T09:20:08.449Z,4.97
2019-05-12T09:22:37.628Z,3.33
2019-05-12T09:25:09.085Z,3.47
2019-05-12T09:27:39.487Z,3.93
2019-05-12T09:30:14.206Z,3.80
2019-05-12T09:32:48.648Z,3.30
2019-05-12T09:35:15.049Z,4.37
2019-05-12T09:37:44.952Z,4.83
2019-05-12T09:40:15.210Z,5.67
2019-05-12T09:42:46.474Z,5.33
2019-05-12T09:45:16.628Z,5.00
2019-05-12T09:47:45.896Z,5.53
2019-05-12T09:50:20.253Z,3.83
2019-05-12T09:52:50.211Z,4.50
2019-05-12T09:55:18.147Z,4.97
2019-05-12T09:57:47.993Z,5.20
2019-05-12T10:00:18.177Z,5.40
2019-05-12T10:02:51.191Z,5.67
2019-05-12T10:05:19.052Z,6.33
2019-05-12T10:07:48.888Z,4.80
2019-05-12T10:10:18.188Z,5.93
2019-05-12T10:12:50.461Z,6.80
2019-05-12T10:15:24.759Z,6.57
2019-05-12T10:17:49.673Z,6.70
2019-05-12T10:20:21.491Z,6.77
2019-05-12T10:22:50.415Z,6.03
2019-05-12T10:25:23.289Z,6.43
2019-05-12T10:27:53.170Z,7.73
2019-05-12T10:30:23.494Z,6.20
2019-05-12T10:32:53.490Z,7.43
2019-05-12T10:35:26.226Z,11.03
2019-05-12T10:37:54.967Z,7.27
2019-05-12T10:40:24.918Z,7.13
2019-05-12T10:42:54.860Z,7.63
2019-05-12T10:45:27.440Z,8.50
2019-05-12T10:47:57.383Z,7.57
2019-05-12T10:50:27.298Z,7.00
2019-05-12T10:52:56.564Z,11.07
2019-05-12T10:55:26.425Z,8.43
2019-05-12T10:58:01.615Z,9.60
2019-05-12T11:00:28.289Z,9.77
2019-05-12T11:03:01.484Z,10.00
2019-05-12T11:05:29.081Z,10.30
2019-05-12T11:08:00.353Z,10.10
2019-05-12T11:10:29.890Z,10.97
2019-05-12T11:13:05.843Z,10.57
2019-05-12T11:15:33.942Z,9.70
2019-05-12T11:18:08.293Z,8.17
2019-05-12T11:20:38.403Z,10.33
2019-05-12T11:23:07.724Z,11.57
2019-05-12T11:25:37.635Z,9.97
2019-05-12T11:28:07.719Z,10.00
2019-05-12T11:30:37.107Z,8.63
2019-05-12T11:33:06.956Z,9.70
2019-05-12T11:35:36.970Z,10.67
2019-05-12T11:38:06.887Z,10.47
2019-05-12T11:40:36.851Z,10.43
2019-05-12T11:43:06.222Z,11.50
2019-05-12T11:45:35.490Z,11.67
2019-05-12T11:48:09.543Z,9.30
2019-05-12T11:50:40.658Z,10.23
2019-05-12T11:53:07.957Z,8.17
2019-05-12T11:55:37.890Z,9.07
2019-05-12T11:58:11.488Z,11.10
2019-05-12T12:00:40.647Z,9.10
2019-05-12T12:03:17.906Z,8.43
2019-05-12T12:05:43.712Z,9.60
2019-05-12T12:08:14.402Z,9.20
2019-05-12T12:10:44.087Z,8.30
2019-05-12T12:13:14.316Z,7.77
2019-05-12T12:15:44.285Z,9.03
2019-05-12T12:18:15.426Z,8.43
2019-05-12T12:20:44.902Z,10.50
2019-05-12T12:23:14.650Z,9.77
2019-05-12T12:25:48.576Z,13.23
2019-05-12T12:28:16.147Z,9.40
2019-05-12T12:30:47.241Z,10.03
2019-05-12T12:33:17.014Z,11.73
2019-05-12T12:35:50.457Z,9.90
2019-05-12T12:38:17.761Z,8.67
2019-05-12T12:40:47.526Z,8.43
2019-05-12T12:43:17.452Z,7.93
2019-05-12T12:45:52.047Z,9.73
2019-05-12T12:48:28.101Z,11.30
2019-05-12T12:50:53.529Z,8.43
2019-05-12T12:53:23.934Z,9.63
2019-05-12T12:55:54.183Z,11.43
2019-05-12T12:58:27.058Z,12.07
2019-05-12T13:00:57.061Z,8.40
2019-05-12T13:03:29.762Z,11.57
2019-05-12T13:06:04.681Z,10.07
2019-05-12T13:08:34.353Z,7.37
2019-05-12T13:11:04.307Z,8.47
2019-05-12T13:13:34.551Z,11.73
2019-05-12T13:16:04.209Z,9.10
2019-05-12T13:18:36.190Z,8.77
2019-05-12T13:21:05.534Z,8.30
2019-05-12T13:23:40.747Z,8.87
2019-05-12T13:26:06.275Z,8.03
2019-05-12T13:28:35.521Z,8.87
2019-05-12T13:31:13.105Z,11.57
2019-05-12T13:33:36.419Z,13.70
2019-05-12T13:36:06.286Z,11.37
2019-05-12T13:38:40.309Z,9.93
2019-05-12T13:41:09.563Z,8.90
2019-05-12T13:43:38.809Z,9.13
2019-05-12T13:46:08.115Z,10.07
2019-05-12T13:48:38.035Z,8.60
2019-05-12T13:51:12.575Z,9.60
2019-05-12T13:53:40.357Z,7.47
2019-05-12T13:56:13.522Z,14.70
2019-05-12T13:58:45.757Z,10.97
2019-05-12T14:01:19.792Z,10.00
2019-05-12T14:03:49.186Z,11.77
2019-05-12T14:06:16.342Z,8.60
2019-05-12T14:08:46.315Z,8.93
2019-05-12T14:11:18.723Z,10.33
2019-05-12T14:13:47.164Z,7.20
2019-05-12T14:16:17.098Z,5.60
2019-05-12T14:18:51.016Z,9.50
2019-05-12T14:21:17.916Z,5.63
2019-05-12T14:23:47.837Z,11.50
2019-05-12T14:26:17.710Z,9.20
2019-05-12T14:28:49.609Z,6.70
2019-05-12T14:31:27.489Z,8.00
2019-05-12T14:33:50.289Z,8.30
2019-05-12T14:36:22.110Z,6.40
2019-05-12T14:38:53.599Z,8.17
2019-05-12T14:41:26.507Z,6.30
2019-05-12T14:44:01.581Z,8.33
2019-05-12T14:46:25.814Z,7.73
2019-05-12T14:48:55.602Z,6.43
2019-05-12T14:51:26.891Z,10.37
2019-05-12T14:53:56.393Z,8.63
2019-05-12T14:56:26.013Z,10.40
2019-05-12T14:59:00.499Z,10.43
2019-05-12T15:01:38.607Z,12.87
2019-05-12T15:03:59.356Z,9.93
2019-05-12T15:06:29.705Z,9.03
2019-05-12T15:08:59.014Z,10.27
2019-05-12T15:11:28.826Z,10.87
2019-05-12T15:13:58.766Z,6.50
2019-05-12T15:16:31.759Z,13.00
2019-05-12T15:19:00.278Z,9.87
2019-05-12T15:21:31.335Z,11.53
2019-05-12T15:24:03.784Z,12.37
2019-05-12T15:26:33.014Z,15.13
2019-05-12T15:29:05.338Z,9.10
2019-05-12T15:31:33.891Z,7.73
2019-05-12T15:34:03.563Z,14.03
2019-05-12T15:36:33.874Z,8.57
2019-05-12T15:39:06.804Z,14.60
2019-05-12T15:41:36.819Z,14.30
2019-05-12T15:44:06.767Z,9.17
2019-05-12T15:46:41.166Z,11.37
2019-05-12T15:49:09.034Z,12.40
2019-05-12T15:51:44.154Z,12.17
2019-05-12T15:54:11.794Z,8.17
2019-05-12T15:56:41.505Z,13.87
2019-05-12T15:59:11.447Z,9.87
2019-05-12T16:01:43.806Z,15.53
2019-05-12T16:04:15.280Z,13.17
2019-05-12T16:06:52.858Z,9.80
2019-05-12T16:09:15.672Z,11.97
2019-05-12T16:11:45.657Z,11.83
2019-05-12T16:14:14.989Z,12.07
2019-05-12T16:16:47.056Z,15.47
2019-05-12T16:19:15.770Z,11.97
2019-05-12T16:21:45.729Z,14.60
2019-05-12T16:24:15.827Z,13.47
2019-05-12T16:26:51.685Z,10.00
2019-05-12T16:29:17.584Z,12.83
2019-05-12T16:31:49.879Z,12.20
2019-05-12T16:34:19.096Z,11.03
2019-05-12T16:36:54.594Z,12.43
2019-05-12T16:39:24.761Z,10.67
2019-05-12T16:41:54.481Z,13.50
2019-05-12T16:44:26.176Z,13.57
2019-05-12T16:46:55.384Z,14.17
2019-05-12T16:49:32.982Z,14.00
2019-05-12T16:51:55.613Z,12.80
2019-05-12T16:54:24.865Z,14.93
2019-05-12T16:56:55.133Z,12.53
2019-05-12T16:59:25.165Z,12.53
2019-05-12T17:01:59.416Z,16.60
2019-05-12T17:04:26.714Z,17.77
2019-05-12T17:06:56.648Z,11.77
2019-05-12T17:09:26.638Z,11.40
2019-05-12T17:11:55.964Z,9.47
2019-05-12T17:14:28.439Z,13.77
2019-05-12T17:16:57.018Z,15.03
2019-05-12T17:19:27.339Z,15.93
2019-05-12T17:21:59.416Z,15.90
2019-05-12T17:24:27.555Z,11.73
2019-05-12T17:26:56.801Z,14.43
2019-05-12T17:29:26.628Z,13.87
2019-05-12T17:31:55.998Z,14.67
2019-05-12T17:34:26.090Z,18.10
2019-05-12T17:37:00.218Z,20.37
2019-05-12T17:39:29.325Z,15.33
2019-05-12T17:41:57.779Z,12.50
2019-05-12T17:44:31.295Z,26.77
2019-05-12T17:46:59.574Z,15.50
2019-05-12T17:49:30.940Z,15.83
2019-05-12T17:52:04.546Z,20.63
2019-05-12T17:54:31.308Z,15.63
2019-05-12T17:57:03.812Z,15.33
2019-05-12T17:59:33.406Z,14.60
2019-05-12T18:02:05.771Z,14.60
2019-05-12T18:04:36.814Z,11.43
2019-05-12T18:07:12.807Z,9.53
2019-05-12T18:09:37.466Z,14.63
2019-05-12T18:12:07.373Z,10.00
2019-05-12T18:14:45.608Z,11.10
2019-05-12T18:17:08.912Z,11.10
2019-05-12T18:19:38.919Z,14.53
2019-05-12T18:22:09.540Z,11.13
2019-05-12T18:24:40.990Z,17.07
2019-05-12T18:27:13.463Z,11.30
2019-05-12T18:29:44.078Z,10.50
2019-05-12T18:32:13.927Z,14.57
2019-05-12T18:34:44.577Z,14.67
2019-05-12T18:37:14.699Z,10.87
2019-05-12T18:39:44.768Z,9.90
2019-05-12T18:42:14.168Z,12.33
2019-05-12T18:44:43.992Z,11.27
2019-05-12T18:47:16.726Z,11.37
2019-05-12T18:49:47.791Z,11.80
2019-05-12T18:52:17.181Z,9.83
2019-05-12T18:54:52.087Z,9.70
2019-05-12T18:57:18.489Z,9.30
2019-05-12T19:00:03.608Z,9.67
2019-05-12T19:02:30.273Z,8.77
2019-05-12T19:05:00.188Z,9.87
2019-05-12T19:07:39.632Z,12.73
2019-05-12T19:10:03.614Z,11.33
2019-05-12T19:12:35.405Z,9.13
2019-05-12T19:15:04.847Z,9.53
2019-05-12T19:17:34.772Z,11.00
2019-05-12T19:20:06.006Z,9.60
2019-05-12T19:22:39.514Z,12.80
2019-05-12T19:25:07.805Z,11.37
2019-05-12T19:27:37.202Z,12.90
2019-05-12T19:30:07.422Z,10.50
2019-05-12T19:32:37.536Z,12.57
2019-05-12T19:35:09.577Z,8.87
2019-05-12T19:37:38.914Z,10.70
2019-05-12T19:40:11.864Z,9.23
2019-05-12T19:42:39.719Z,12.10
2019-05-12T19:45:19.769Z,12.63
2019-05-12T19:47:44.345Z,12.83
2019-05-12T19:50:18.231Z,9.57
2019-05-12T19:52:45.480Z,11.23
2019-05-12T19:55:14.804Z,9.60
2019-05-12T19:57:44.842Z,17.03
2019-05-12T20:00:15.484Z,12.00
2019-05-12T20:02:45.450Z,11.13
2019-05-12T20:05:17.621Z,10.60
2019-05-12T20:07:47.779Z,10.93
2019-05-12T20:10:17.818Z,11.20
2019-05-12T20:12:48.819Z,13.03
2019-05-12T20:15:18.684Z,15.63
2019-05-12T20:17:48.903Z,11.33
2019-05-12T20:20:18.866Z,11.30
2019-05-12T20:22:48.904Z,9.00
2019-05-12T20:25:18.909Z,8.90
2019-05-12T20:27:48.369Z,13.07
2019-05-12T20:30:20.969Z,11.77
2019-05-12T20:32:50.174Z,10.53
2019-05-12T20:35:20.130Z,11.33
2019-05-12T20:37:53.040Z,10.73
2019-05-12T20:40:23.830Z,7.97
2019-05-12T20:43:07.371Z,7.93
2019-05-12T20:45:25.993Z,9.00
2019-05-12T20:47:56.251Z,8.67
2019-05-12T20:50:32.691Z,12.83
2019-05-12T20:52:58.995Z,8.67
2019-05-12T20:55:39.448Z,9.60
2019-05-12T20:58:04.459Z,8.20
2019-05-12T21:00:38.736Z,8.93
2019-05-12T21:03:05.768Z,9.13
2019-05-12T21:05:35.771Z,6.90
2019-05-12T21:08:11.689Z,7.57
2019-05-12T21:10:36.725Z,6.40
2019-05-12T21:13:06.682Z,6.50
2019-05-12T21:15:42.532Z,7.70
2019-05-12T21:18:08.358Z,7.63
2019-05-12T21:20:37.698Z,6.80
2019-05-12T21:23:07.638Z,6.53
2019-05-12T21:25:37.597Z,8.33
2019-05-12T21:28:08.053Z,8.43
2019-05-12T21:30:42.492Z,6.70
2019-05-12T21:33:09.913Z,9.80
2019-05-12T21:35:40.992Z,8.40
2019-05-12T21:38:13.292Z,10.10
2019-05-12T21:40:44.052Z,6.93
2019-05-12T21:43:13.894Z,6.63
2019-05-12T21:45:44.014Z,8.07
2019-05-12T21:48:15.233Z,8.13
2019-05-12T21:50:44.794Z,7.40
2019-05-12T21:53:17.456Z,6.73
2019-05-12T21:55:46.581Z,7.27
2019-05-12T21:58:16.497Z,7.10
2019-05-12T22:00:56.101Z,9.37
2019-05-12T22:03:24.267Z,9.23
2019-05-12T22:05:55.688Z,7.70
2019-05-12T22:08:26.946Z,6.10
2019-05-12T22:11:00.673Z,6.87
2019-05-12T22:13:27.762Z,9.67
2019-05-12T22:15:59.106Z,6.67
2019-05-12T22:18:28.550Z,8.27
2019-05-12T22:21:03.377Z,7.40
2019-05-12T22:23:30.030Z,7.27
2019-05-12T22:26:00.465Z,8.70
2019-05-12T22:28:30.618Z,6.93
2019-05-12T22:31:00.558Z,7.37
2019-05-12T22:33:29.868Z,7.17
2019-05-12T22:36:05.016Z,8.00
2019-05-12T22:38:30.495Z,8.87
2019-05-12T22:40:59.876Z,8.30
2019-05-12T22:43:34.870Z,6.83
2019-05-12T22:46:00.534Z,9.30
2019-05-12T22:48:35.904Z,10.23
2019-05-12T22:51:06.091Z,8.00
2019-05-12T22:53:31.655Z,9.80
2019-05-12T22:56:02.999Z,9.07
2019-05-12T22:58:33.797Z,8.03
2019-05-12T23:01:05.292Z,9.00
2019-05-12T23:03:35.739Z,10.63
2019-05-12T23:06:20.174Z,9.23
2019-05-12T23:08:38.882Z,10.10
2019-05-12T23:11:07.702Z,8.50
2019-05-12T23:13:42.592Z,8.83
2019-05-12T23:16:09.138Z,8.63
2019-05-12T23:18:38.338Z,9.43
2019-05-12T23:21:15.973Z,15.43
2019-05-12T23:23:39.689Z,9.53
2019-05-12T23:26:09.002Z,8.07
2019-05-12T23:28:40.363Z,9.17
2019-05-12T23:31:09.717Z,8.23
2019-05-12T23:33:39.490Z,9.57
2019-05-12T23:36:09.514Z,8.57
2019-05-12T23:38:40.039Z,8.47
2019-05-12T23:41:09.274Z,11.97
2019-05-12T23:43:38.481Z,9.40
2019-05-12T23:46:08.249Z,7.97
2019-05-12T23:48:38.152Z,11.97
2019-05-12T23:51:08.069Z,10.57
2019-05-12T23:53:38.171Z,9.40
2019-05-12T23:56:08.060Z,10.23
2019-05-12T23:58:37.978Z,8.77
